createdAt,value
2018-07-24T00:01:30.660Z,18.30
2018-07-24T00:03:59.023Z,18.30
2018-07-24T00:06:27.331Z,18.30
2018-07-24T00:08:55.636Z,18.30
2018-07-24T00:11:23.916Z,18.20
2018-07-24T00:13:52.248Z,18.30
2018-07-24T00:16:20.638Z,18.30
2018-07-24T00:18:48.996Z,18.20
2018-07-24T00:21:17.353Z,18.30
2018-07-24T00:23:45.663Z,18.20
2018-07-24T00:26:14.008Z,18.20
2018-07-24T00:28:42.327Z,18.20
2018-07-24T00:31:10.720Z,18.20
2018-07-24T00:33:39.040Z,18.20
2018-07-24T00:36:07.498Z,18.20
2018-07-24T00:38:35.840Z,18.10
2018-07-24T00:41:04.152Z,18.10
2018-07-24T00:43:32.431Z,18.10
2018-07-24T00:46:00.703Z,18.00
2018-07-24T00:48:29.108Z,18.00
2018-07-24T00:50:57.519Z,18.00
2018-07-24T00:53:25.841Z,17.90
2018-07-24T00:55:54.219Z,17.90
2018-07-24T00:58:22.567Z,17.90
2018-07-24T01:00:50.919Z,17.80
2018-07-24T01:03:19.532Z,17.80
2018-07-24T01:05:47.867Z,17.80
2018-07-24T01:08:16.271Z,17.80
2018-07-24T01:10:44.579Z,17.80
2018-07-24T01:13:12.904Z,17.80
2018-07-24T01:15:41.251Z,17.70
2018-07-24T01:18:09.528Z,17.70
2018-07-24T01:20:37.863Z,17.70
2018-07-24T01:23:06.405Z,17.70
2018-07-24T01:25:34.707Z,17.60
2018-07-24T01:28:03.089Z,17.60
2018-07-24T01:30:31.427Z,17.60
2018-07-24T01:32:59.745Z,17.60
2018-07-24T01:35:28.085Z,17.60
2018-07-24T01:37:56.484Z,17.60
2018-07-24T01:40:24.849Z,17.50
2018-07-24T01:42:53.169Z,17.60
2018-07-24T01:45:21.459Z,17.50
2018-07-24T01:47:49.805Z,17.50
2018-07-24T01:50:18.116Z,17.40
2018-07-24T01:52:46.496Z,17.40
2018-07-24T01:55:14.822Z,17.30
2018-07-24T01:57:43.144Z,17.40
2018-07-24T02:00:15.658Z,17.30
2018-07-24T02:02:44.070Z,17.30
2018-07-24T02:05:12.754Z,17.30
2018-07-24T02:07:41.540Z,17.20
2018-07-24T02:10:09.916Z,17.30
2018-07-24T02:12:38.431Z,17.20
2018-07-24T02:15:07.219Z,17.20
2018-07-24T02:17:35.583Z,17.10
2018-07-24T02:20:04.025Z,17.10
2018-07-24T02:22:32.340Z,17.00
2018-07-24T02:25:00.694Z,17.00
2018-07-24T02:27:29.070Z,16.90
2018-07-24T02:29:57.668Z,17.00
2018-07-24T02:32:26.044Z,16.90
2018-07-24T02:34:54.440Z,16.90
2018-07-24T02:37:22.832Z,16.90
2018-07-24T02:39:51.184Z,16.80
2018-07-24T02:42:19.551Z,16.90
2018-07-24T02:44:47.869Z,16.80
2018-07-24T02:47:16.218Z,16.80
2018-07-24T02:49:44.528Z,16.80
2018-07-24T02:52:12.888Z,16.80
2018-07-24T02:54:41.264Z,16.80
2018-07-24T02:57:09.726Z,16.80
2018-07-24T02:59:38.068Z,16.80
2018-07-24T03:02:06.827Z,16.80
2018-07-24T03:04:35.246Z,16.80
2018-07-24T03:07:03.572Z,16.80
2018-07-24T03:09:31.981Z,16.70
2018-07-24T03:12:00.337Z,16.70
2018-07-24T03:14:28.624Z,16.70
2018-07-24T03:19:25.028Z,16.70
2018-07-24T03:21:53.405Z,16.60
2018-07-24T03:24:21.701Z,16.60
2018-07-24T03:26:50.049Z,16.60
2018-07-24T03:29:18.412Z,16.60
2018-07-24T03:31:46.968Z,16.60
2018-07-24T03:34:15.253Z,16.60
2018-07-24T03:36:43.580Z,16.60
2018-07-24T03:39:13.038Z,16.60
2018-07-24T03:41:41.652Z,16.60
2018-07-24T03:44:10.192Z,16.60
2018-07-24T03:46:38.544Z,16.60
2018-07-24T03:49:06.899Z,16.50
2018-07-24T03:51:35.225Z,16.50
2018-07-24T03:56:31.672Z,16.60
2018-07-24T03:59:00.008Z,16.50
2018-07-24T04:01:28.344Z,16.50
2018-07-24T04:03:56.661Z,16.50
2018-07-24T04:06:24.974Z,16.50
2018-07-24T04:08:53.268Z,16.50
2018-07-24T04:11:21.593Z,16.50
2018-07-24T04:13:50.024Z,16.50
2018-07-24T04:16:18.345Z,16.50
2018-07-24T04:18:47.851Z,16.50
2018-07-24T04:21:17.525Z,16.50
2018-07-24T04:23:46.273Z,16.50
2018-07-24T04:26:14.653Z,16.50
2018-07-24T04:28:44.144Z,16.60
2018-07-24T04:31:13.265Z,16.60
2018-07-24T04:33:42.169Z,16.60
2018-07-24T04:36:10.532Z,16.70
2018-07-24T04:38:38.848Z,16.60
2018-07-24T04:41:07.283Z,16.70
2018-07-24T04:43:35.658Z,16.70
2018-07-24T04:46:03.991Z,16.70
2018-07-24T04:48:32.583Z,16.80
2018-07-24T04:51:00.921Z,16.80
2018-07-24T04:53:29.224Z,16.80
2018-07-24T04:55:57.528Z,16.90
2018-07-24T04:58:25.909Z,16.90
2018-07-24T05:00:54.448Z,17.00
2018-07-24T05:03:22.887Z,17.00
2018-07-24T05:05:51.205Z,17.00
2018-07-24T05:08:19.826Z,17.10
2018-07-24T05:10:48.151Z,17.10
2018-07-24T05:13:16.488Z,17.20
2018-07-24T05:15:44.788Z,17.20
2018-07-24T05:20:41.209Z,17.30
2018-07-24T05:23:09.540Z,17.30
2018-07-24T05:25:37.887Z,17.40
2018-07-24T05:28:06.208Z,17.40
2018-07-24T05:30:34.589Z,17.50
2018-07-24T05:33:02.968Z,17.50
2018-07-24T05:35:31.336Z,17.60
2018-07-24T05:37:59.665Z,17.60
2018-07-24T05:40:28.051Z,17.70
2018-07-24T05:42:56.553Z,17.80
2018-07-24T05:45:24.881Z,17.80
2018-07-24T05:47:53.953Z,17.90
2018-07-24T05:50:22.361Z,18.00
2018-07-24T05:52:50.707Z,18.00
2018-07-24T05:55:19.019Z,18.10
2018-07-24T05:57:47.635Z,18.20
2018-07-24T06:00:16.021Z,18.30
2018-07-24T06:02:44.345Z,18.40
2018-07-24T06:05:12.706Z,18.50
2018-07-24T06:07:41.032Z,18.60
2018-07-24T06:10:09.517Z,18.70
2018-07-24T06:12:37.884Z,18.80
2018-07-24T06:15:06.845Z,19.00
2018-07-24T06:17:35.258Z,19.10
2018-07-24T06:20:03.644Z,19.20
2018-07-24T06:22:31.993Z,19.30
2018-07-24T06:25:00.349Z,19.50
2018-07-24T06:27:28.700Z,19.60
2018-07-24T06:29:57.085Z,19.80
2018-07-24T06:32:25.492Z,20.00
2018-07-24T06:34:53.908Z,20.10
2018-07-24T06:37:22.440Z,20.30
2018-07-24T06:39:50.756Z,20.50
2018-07-24T06:42:19.097Z,20.80
2018-07-24T06:44:47.413Z,21.20
2018-07-24T06:47:15.732Z,21.50
2018-07-24T06:49:44.081Z,21.80
2018-07-24T06:52:12.392Z,22.10
2018-07-24T06:54:40.696Z,22.40
2018-07-24T06:57:09.044Z,22.60
2018-07-24T06:59:37.364Z,22.80
2018-07-24T07:02:05.757Z,23.00
2018-07-24T07:04:34.173Z,23.20
2018-07-24T07:07:02.521Z,23.40
2018-07-24T07:09:30.888Z,23.60
2018-07-24T07:11:59.198Z,23.90
2018-07-24T07:14:27.659Z,24.20
2018-07-24T07:16:55.964Z,24.50
2018-07-24T07:19:24.352Z,24.80
2018-07-24T07:21:52.644Z,25.00
2018-07-24T07:24:20.976Z,25.10
2018-07-24T07:26:49.313Z,25.10
2018-07-24T07:29:17.643Z,25.20
2018-07-24T07:31:45.976Z,25.20
2018-07-24T07:34:14.358Z,25.30
2018-07-24T07:36:42.680Z,25.40
2018-07-24T07:39:11.648Z,25.40
2018-07-24T07:41:40.283Z,25.50
2018-07-24T07:44:09.096Z,25.60
2018-07-24T07:46:37.453Z,25.70
2018-07-24T07:49:05.852Z,25.80
2018-07-24T07:51:34.258Z,25.80
2018-07-24T07:54:02.596Z,25.90
2018-07-24T07:56:30.982Z,26.00
2018-07-24T07:58:59.344Z,26.10
2018-07-24T08:01:27.870Z,26.20
2018-07-24T08:03:56.223Z,26.30
2018-07-24T08:06:24.580Z,26.50
2018-07-24T08:08:52.913Z,26.60
2018-07-24T08:11:21.288Z,26.70
2018-07-24T08:13:49.612Z,26.90
2018-07-24T08:16:18.136Z,27.00
2018-07-24T08:18:46.472Z,27.20
2018-07-24T08:21:14.776Z,27.40
2018-07-24T08:23:43.157Z,27.50
2018-07-24T08:26:11.440Z,27.70
2018-07-24T08:28:39.784Z,27.80
2018-07-24T08:31:08.140Z,28.00
2018-07-24T08:33:36.482Z,28.10
2018-07-24T08:36:04.797Z,28.30
2018-07-24T08:38:33.121Z,28.50
2018-07-24T08:41:01.448Z,28.70
2018-07-24T08:43:29.757Z,28.90
2018-07-24T08:45:58.061Z,29.10
2018-07-24T08:50:54.458Z,29.60
2018-07-24T08:53:23.082Z,30.00
2018-07-24T08:55:51.344Z,30.40
2018-07-24T08:58:19.823Z,30.80
2018-07-24T09:00:48.249Z,31.30
2018-07-24T09:03:16.719Z,31.70
2018-07-24T09:05:44.937Z,32.10
2018-07-24T09:08:13.248Z,32.60
2018-07-24T09:10:41.617Z,33.10
2018-07-24T09:13:10.024Z,33.60
2018-07-24T09:15:38.351Z,34.00
2018-07-24T09:18:06.745Z,34.50
2018-07-24T09:20:35.068Z,34.90
2018-07-24T09:23:03.388Z,35.30
2018-07-24T09:25:31.700Z,35.50
2018-07-24T09:28:00.061Z,35.90
2018-07-24T09:30:28.385Z,36.20
2018-07-24T09:32:56.732Z,36.50
2018-07-24T09:35:25.020Z,36.80
2018-07-24T09:37:53.354Z,37.00
2018-07-24T09:40:21.694Z,37.20
2018-07-24T09:42:50.004Z,37.30
2018-07-24T09:45:18.343Z,37.50
2018-07-24T09:47:46.718Z,37.60
2018-07-24T09:50:15.092Z,37.80
2018-07-24T09:52:43.396Z,37.90
2018-07-24T09:57:39.895Z,37.90
2018-07-24T10:00:08.700Z,37.70
2018-07-24T10:02:37.445Z,37.40
2018-07-24T10:05:06.041Z,37.00
2018-07-24T10:07:34.529Z,36.80
2018-07-24T10:10:02.885Z,36.50
2018-07-24T10:12:31.208Z,36.40
2018-07-24T10:14:59.508Z,36.30
2018-07-24T10:17:27.882Z,36.30
2018-07-24T10:19:56.252Z,36.20
2018-07-24T10:22:24.705Z,36.20
2018-07-24T10:24:53.112Z,36.20
2018-07-24T10:27:21.453Z,36.20
2018-07-24T10:29:49.775Z,36.10
2018-07-24T10:32:18.148Z,36.00
2018-07-24T10:34:46.605Z,35.90
2018-07-24T10:37:14.930Z,35.80
2018-07-24T10:39:43.748Z,35.70
2018-07-24T10:42:12.092Z,35.60
2018-07-24T10:44:40.415Z,35.70
2018-07-24T10:47:08.780Z,35.80
2018-07-24T10:49:37.085Z,35.90
2018-07-24T10:54:33.584Z,36.40
2018-07-24T10:57:02.012Z,36.60
2018-07-24T10:59:30.368Z,36.90
2018-07-24T11:01:58.693Z,37.20
2018-07-24T11:04:27.020Z,37.30
2018-07-24T11:06:55.352Z,37.60
2018-07-24T11:09:23.676Z,37.80
2018-07-24T11:11:51.985Z,38.20
2018-07-24T11:14:20.548Z,38.50
2018-07-24T11:16:48.867Z,39.00
2018-07-24T11:19:17.192Z,39.40
2018-07-24T11:21:45.736Z,39.70
2018-07-24T11:24:13.992Z,40.10
2018-07-24T11:26:42.352Z,40.50
2018-07-24T11:29:10.712Z,40.70
2018-07-24T11:31:39.044Z,40.80
2018-07-24T11:36:35.389Z,41.10
2018-07-24T11:39:05.892Z,41.30
2018-07-24T11:41:34.198Z,41.60
2018-07-24T11:44:02.543Z,41.90
2018-07-24T11:46:30.938Z,42.10
2018-07-24T11:48:59.600Z,42.20
2018-07-24T11:51:28.106Z,42.30
2018-07-24T11:53:56.408Z,42.30
2018-07-24T11:56:24.721Z,42.30
2018-07-24T11:58:53.067Z,42.40
2018-07-24T12:01:21.408Z,42.50
2018-07-24T12:03:49.781Z,42.70
2018-07-24T12:06:18.108Z,42.90
2018-07-24T12:08:46.438Z,43.00
2018-07-24T12:11:14.788Z,43.00
2018-07-24T12:13:43.153Z,42.90
2018-07-24T12:16:11.568Z,42.90
2018-07-24T12:18:39.864Z,42.90
2018-07-24T12:21:08.231Z,43.00
2018-07-24T12:23:36.540Z,43.10
2018-07-24T12:26:05.039Z,43.20
2018-07-24T12:28:33.365Z,43.20
2018-07-24T12:31:01.788Z,43.30
2018-07-24T12:33:30.124Z,43.50
2018-07-24T12:35:58.549Z,43.70
2018-07-24T12:38:26.866Z,43.80
2018-07-24T12:40:55.264Z,43.80
2018-07-24T12:43:23.723Z,43.90
2018-07-24T12:45:52.176Z,43.90
2018-07-24T12:48:20.505Z,43.20
2018-07-24T12:50:48.815Z,42.80
2018-07-24T12:53:17.277Z,42.90
2018-07-24T12:55:45.571Z,43.10
2018-07-24T12:58:13.904Z,43.40
2018-07-24T13:00:42.208Z,43.70
2018-07-24T13:03:10.601Z,43.90
2018-07-24T13:08:06.997Z,43.80
2018-07-24T13:10:35.442Z,43.90
2018-07-24T13:13:03.882Z,44.00
2018-07-24T13:15:32.172Z,43.70
2018-07-24T13:18:00.496Z,43.10
2018-07-24T13:20:28.864Z,42.90
2018-07-24T13:22:57.301Z,42.90
2018-07-24T13:25:25.633Z,43.10
2018-07-24T13:27:53.980Z,43.40
2018-07-24T13:30:22.337Z,43.70
2018-07-24T13:32:50.684Z,43.80
2018-07-24T13:35:18.970Z,44.00
2018-07-24T13:37:47.276Z,44.00
2018-07-24T13:40:15.581Z,44.20
2018-07-24T13:42:43.945Z,44.40
2018-07-24T13:45:12.296Z,44.60
2018-07-24T13:47:40.596Z,44.70
2018-07-24T13:50:08.929Z,44.80
2018-07-24T13:52:37.323Z,44.80
2018-07-24T13:57:33.756Z,44.90
2018-07-24T14:00:02.111Z,44.90
2018-07-24T14:02:30.416Z,44.90
2018-07-24T14:04:58.772Z,44.90
2018-07-24T14:07:27.119Z,44.90
2018-07-24T14:09:55.477Z,44.90
2018-07-24T14:12:23.971Z,44.90
2018-07-24T14:14:52.312Z,44.70
2018-07-24T14:17:20.656Z,44.70
2018-07-24T14:19:49.015Z,44.70
2018-07-24T14:22:17.356Z,44.70
2018-07-24T14:24:45.870Z,44.70
2018-07-24T14:27:14.201Z,44.70
2018-07-24T14:29:42.518Z,44.50
2018-07-24T14:32:10.886Z,44.30
2018-07-24T14:34:39.245Z,44.20
2018-07-24T14:37:07.738Z,43.60
2018-07-24T14:42:04.128Z,42.60
2018-07-24T14:44:32.454Z,42.50
2018-07-24T14:47:00.884Z,42.50
2018-07-24T14:49:29.213Z,42.50
2018-07-24T14:51:57.580Z,42.40
2018-07-24T14:54:25.997Z,42.40
2018-07-24T14:56:54.301Z,42.10
2018-07-24T14:59:22.669Z,41.70
2018-07-24T15:01:51.152Z,41.00
2018-07-24T15:04:19.476Z,40.30
2018-07-24T15:06:47.768Z,39.60
2018-07-24T15:11:44.717Z,38.40
2018-07-24T15:16:41.117Z,37.50
2018-07-24T15:19:09.416Z,37.10
2018-07-24T15:21:37.728Z,36.80
2018-07-24T15:24:06.064Z,36.40
2018-07-24T15:26:34.556Z,36.10
2018-07-24T15:29:02.862Z,35.90
2018-07-24T15:33:59.267Z,35.40
2018-07-24T15:36:27.602Z,35.10
2018-07-24T15:38:55.970Z,34.90
2018-07-24T15:41:24.343Z,34.80
2018-07-24T15:43:52.687Z,34.60
2018-07-24T15:46:21.058Z,34.50
2018-07-24T15:48:49.449Z,34.30
2018-07-24T15:51:17.760Z,34.10
2018-07-24T15:56:14.177Z,33.70
2018-07-24T15:58:42.484Z,33.50
2018-07-24T16:01:10.993Z,33.30
2018-07-24T16:03:39.453Z,33.00
2018-07-24T16:06:07.796Z,32.90
2018-07-24T16:08:36.072Z,32.70
2018-07-24T16:11:04.512Z,32.50
2018-07-24T16:13:32.812Z,32.40
2018-07-24T16:16:01.136Z,32.30
2018-07-24T16:20:57.560Z,32.00
2018-07-24T16:23:26.200Z,31.90
2018-07-24T16:25:54.550Z,31.80
2018-07-24T16:30:50.904Z,31.60
2018-07-24T16:33:19.310Z,31.50
2018-07-24T16:35:48.004Z,31.40
2018-07-24T16:38:16.352Z,31.30
2018-07-24T16:40:44.731Z,31.20
2018-07-24T16:43:13.078Z,31.10
2018-07-24T16:45:41.536Z,30.90
2018-07-24T16:48:09.903Z,30.80
2018-07-24T16:50:38.292Z,30.80
2018-07-24T16:53:06.677Z,30.60
2018-07-24T16:55:35.048Z,30.60
2018-07-24T16:58:03.485Z,30.40
2018-07-24T17:00:31.993Z,30.30
2018-07-24T17:03:00.532Z,30.20
2018-07-24T17:05:28.987Z,30.10
2018-07-24T17:07:57.379Z,30.10
2018-07-24T17:10:25.798Z,30.00
2018-07-24T17:12:54.212Z,29.90
2018-07-24T17:15:22.557Z,29.80
2018-07-24T17:17:52.294Z,29.70
2018-07-24T17:20:20.656Z,29.70
2018-07-24T17:22:49.046Z,29.60
2018-07-24T17:25:17.422Z,29.60
2018-07-24T17:27:45.841Z,29.40
2018-07-24T17:30:14.264Z,29.40
2018-07-24T17:32:42.768Z,29.40
2018-07-24T17:35:11.072Z,29.30
2018-07-24T17:37:39.540Z,29.30
2018-07-24T17:40:07.917Z,29.20
2018-07-24T17:42:36.520Z,29.10
2018-07-24T17:45:05.453Z,29.00
2018-07-24T17:47:33.850Z,29.00
2018-07-24T17:50:02.380Z,29.00
2018-07-24T17:52:30.822Z,28.90
2018-07-24T17:54:59.140Z,28.90
2018-07-24T17:57:27.647Z,28.80
2018-07-24T17:59:55.953Z,28.60
2018-07-24T18:02:24.300Z,28.50
2018-07-24T18:04:52.756Z,28.50
2018-07-24T18:07:21.077Z,28.40
2018-07-24T18:09:49.377Z,28.30
2018-07-24T18:12:18.509Z,28.20
2018-07-24T18:14:47.073Z,28.20
2018-07-24T18:17:15.569Z,28.20
2018-07-24T18:19:43.931Z,28.20
2018-07-24T18:22:12.262Z,28.20
2018-07-24T18:29:37.469Z,28.10
2018-07-24T18:32:05.855Z,28.00
2018-07-24T18:34:34.212Z,28.00
2018-07-24T18:37:02.610Z,27.90
2018-07-24T18:39:30.902Z,27.80
2018-07-24T18:41:59.244Z,27.60
2018-07-24T18:44:27.748Z,27.50
2018-07-24T18:46:56.152Z,27.40
2018-07-24T18:49:25.450Z,27.40
2018-07-24T18:51:53.793Z,27.40
2018-07-24T18:54:22.144Z,27.30
2018-07-24T18:56:50.498Z,27.20
2018-07-24T18:59:18.912Z,27.20
2018-07-24T19:01:47.668Z,27.10
2018-07-24T19:04:16.232Z,27.00
2018-07-24T19:06:44.560Z,26.90
2018-07-24T19:09:12.901Z,26.90
2018-07-24T19:11:41.473Z,26.90
2018-07-24T19:14:10.141Z,26.90
2018-07-24T19:16:38.489Z,26.80
2018-07-24T19:19:06.944Z,26.70
2018-07-24T19:24:03.702Z,26.60
2018-07-24T19:29:01.102Z,26.40
2018-07-24T19:31:30.284Z,26.30
2018-07-24T19:33:58.700Z,26.20
2018-07-24T19:36:27.416Z,26.10
2018-07-24T19:38:55.811Z,26.00
2018-07-24T19:41:24.281Z,25.90
2018-07-24T19:43:52.713Z,25.80
2018-07-24T19:46:21.108Z,25.70
2018-07-24T19:48:49.467Z,25.50
2018-07-24T19:51:18.060Z,25.50
2018-07-24T19:53:46.463Z,25.40
2018-07-24T19:56:14.832Z,25.30
2018-07-24T19:58:43.177Z,25.30
2018-07-24T20:01:11.520Z,25.20
2018-07-24T20:03:40.006Z,25.20
2018-07-24T20:06:08.389Z,25.10
2018-07-24T20:08:36.728Z,25.00
2018-07-24T20:11:05.153Z,25.00
2018-07-24T20:13:33.513Z,24.90
2018-07-24T20:16:01.894Z,24.80
2018-07-24T20:18:30.456Z,24.70
2018-07-24T20:20:58.858Z,24.70
2018-07-24T20:23:27.593Z,24.60
2018-07-24T20:25:55.976Z,24.60
2018-07-24T20:28:24.325Z,24.40
2018-07-24T20:30:52.667Z,24.40
2018-07-24T20:33:21.036Z,24.30
2018-07-24T20:35:49.344Z,24.30
2018-07-24T20:38:17.685Z,24.20
2018-07-24T20:40:46.036Z,24.20
2018-07-24T20:43:14.414Z,24.10
2018-07-24T20:45:42.844Z,24.00
2018-07-24T20:48:11.209Z,23.90
2018-07-24T20:50:39.572Z,23.90
2018-07-24T20:53:07.887Z,23.90
2018-07-24T20:55:36.424Z,23.80
2018-07-24T20:58:05.014Z,23.80
2018-07-24T21:00:33.459Z,23.70
2018-07-24T21:03:04.740Z,23.70
2018-07-24T21:05:33.056Z,23.60
2018-07-24T21:10:29.453Z,23.50
2018-07-24T21:12:57.830Z,23.50
2018-07-24T21:15:26.121Z,23.40
2018-07-24T21:17:54.455Z,23.40
2018-07-24T21:20:22.792Z,23.40
2018-07-24T21:22:51.116Z,23.30
2018-07-24T21:25:19.470Z,23.30
2018-07-24T21:27:47.807Z,23.20
2018-07-24T21:30:16.171Z,23.20
2018-07-24T21:32:44.483Z,23.10
2018-07-24T21:35:12.834Z,23.10
2018-07-24T21:37:41.152Z,23.00
2018-07-24T21:40:09.475Z,23.00
2018-07-24T21:42:37.923Z,23.00
2018-07-24T21:45:06.201Z,22.90
2018-07-24T21:47:34.573Z,22.90
2018-07-24T21:50:02.916Z,22.80
2018-07-24T21:52:31.289Z,22.80
2018-07-24T21:54:59.626Z,22.80
2018-07-24T21:57:27.956Z,22.70
2018-07-24T21:59:56.364Z,22.70
2018-07-24T22:04:52.916Z,22.60
2018-07-24T22:09:49.264Z,22.50
2018-07-24T22:12:17.606Z,22.50
2018-07-24T22:14:45.948Z,22.50
2018-07-24T22:17:14.253Z,22.40
2018-07-24T22:19:42.542Z,22.40
2018-07-24T22:22:10.932Z,22.30
2018-07-24T22:24:39.232Z,22.30
2018-07-24T22:27:07.645Z,22.30
2018-07-24T22:29:35.948Z,22.30
2018-07-24T22:32:04.308Z,22.20
2018-07-24T22:34:32.605Z,22.10
2018-07-24T22:37:01.045Z,22.10
2018-07-24T22:39:29.372Z,22.10
2018-07-24T22:41:58.156Z,22.00
2018-07-24T22:44:26.493Z,22.00
2018-07-24T22:46:55.012Z,22.00
2018-07-24T22:49:23.333Z,21.90
2018-07-24T22:51:51.648Z,21.80
2018-07-24T22:54:21.032Z,21.80
2018-07-24T22:56:49.356Z,21.80
2018-07-24T22:59:17.664Z,21.70
2018-07-24T23:01:45.984Z,21.70
2018-07-24T23:04:14.355Z,21.70
2018-07-24T23:06:42.678Z,21.60
2018-07-24T23:09:11.443Z,21.60
2018-07-24T23:11:40.188Z,21.50
2018-07-24T23:14:08.497Z,21.50
2018-07-24T23:16:36.971Z,21.50
2018-07-24T23:19:05.599Z,21.50
2018-07-24T23:21:33.924Z,21.40
2018-07-24T23:24:02.289Z,21.40
2018-07-24T23:26:30.632Z,21.40
2018-07-24T23:28:58.947Z,21.30
2018-07-24T23:31:27.327Z,21.30
2018-07-24T23:33:55.724Z,21.30
2018-07-24T23:36:24.060Z,21.30
2018-07-24T23:38:52.396Z,21.30
2018-07-24T23:41:20.753Z,21.30
2018-07-24T23:43:49.144Z,21.20
2018-07-24T23:46:17.659Z,21.20
2018-07-24T23:48:46.013Z,21.20
2018-07-24T23:51:14.320Z,21.10
2018-07-24T23:53:42.676Z,21.20
2018-07-24T23:56:10.956Z,21.10
2018-07-24T23:58:39.336Z,21.10
